Time;durP1;ratioP1;P1;durP2;ratioP2;P2;SDS_P1;SDS_P2;PMS_P1;PMS_P2;Temp;Humidity;BMP_temperature;BMP_pressure;BME280_temperature;BME280_humidity;BME280_pressure;Samples;Min_cycle;Max_cycle;Signal;HPM_P1;HPM_P2
2022/11/05 00:09:28;;;;;;;10.15;7.53;;;;;;;5.79;100.00;101339.38;6271472;22;20467;-84
2022/11/05 00:17:26;;;;;;;;;;;;;;;5.66;100.00;101346.69;6271697;22;20368;-84
2022/11/05 00:19:51;;;;;;;8.25;6.13;;;;;;;5.57;100.00;101346.91;6273794;22;19903;-84
2022/11/05 00:25:15;;;;;;;8.75;7.80;;;;;;;5.54;100.00;101351.38;6272604;22;20018;-84
2022/11/05 00:27:45;;;;;;;8.18;7.30;;;;;;;5.54;100.00;101359.31;6271943;22;20004;-84
2022/11/05 00:30:13;;;;;;;10.90;7.80;;;;;;;5.53;100.00;101350.53;6273261;22;20092;-83
2022/11/05 00:32:39;;;;;;;7.95;6.97;;;;;;;5.45;100.00;101355.97;6269540;22;20338;-83
2022/11/05 00:35:06;;;;;;;13.82;7.97;;;;;;;5.40;100.00;101352.56;6270596;22;20010;-84
2022/11/05 00:37:31;;;;;;;8.90;7.97;;;;;;;5.33;100.00;101353.59;6272534;22;20003;-84
2022/11/05 00:39:56;;;;;;;10.38;7.28;;;;;;;5.34;100.00;101354.44;6270142;22;20007;-83
2022/11/05 00:45:06;;;;;;;11.15;7.60;;;;;;;5.23;100.00;101367.88;6271523;22;20023;-83
2022/11/05 00:50:17;;;;;;;9.05;7.57;;;;;;;5.08;100.00;101371.69;6270824;22;20014;-83
2022/11/05 00:52:55;;;;;;;10.68;7.82;;;;;;;5.02;100.00;101360.38;6270618;22;20007;-84
2022/11/05 00:55:36;;;;;;;10.13;7.50;;;;;;;5.04;100.00;101371.78;6271828;22;20015;-84
2022/11/05 00:58:04;;;;;;;9.43;7.63;;;;;;;5.05;100.00;101384.06;6270948;22;19999;-83
2022/11/05 01:00:31;;;;;;;11.23;8.10;;;;;;;5.03;100.00;101384.09;6270946;22;20018;-83
2022/11/05 01:02:58;;;;;;;12.45;7.78;;;;;;;5.15;100.00;101388.28;6270882;22;20012;-82
2022/11/05 01:05:24;;;;;;;10.45;7.68;;;;;;;5.13;100.00;101390.94;6275753;22;20016;-84
2022/11/05 01:07:52;;;;;;;11.23;8.15;;;;;;;5.25;100.00;101397.75;6290096;22;20004;-83
2022/11/05 01:10:17;;;;;;;9.35;8.05;;;;;;;5.29;100.00;101395.91;6290075;22;19992;-83
2022/11/05 01:12:42;;;;;;;10.95;7.85;;;;;;;5.27;100.00;101395.06;6290580;22;20393;-83
2022/11/05 01:15:08;;;;;;;9.27;8.02;;;;;;;5.29;100.00;101403.84;6276361;22;20015;-84
2022/11/05 01:17:33;;;;;;;12.35;8.68;;;;;;;5.37;100.00;101410.69;6272255;22;20315;-84
2022/11/05 01:19:59;;;;;;;12.48;10.10;;;;;;;5.38;100.00;101399.22;6271723;22;20061;-84
2022/11/05 01:22:24;;;;;;;12.93;9.23;;;;;;;5.37;100.00;101404.53;6271894;22;20075;-83
2022/11/05 01:24:49;;;;;;;11.35;10.10;;;;;;;5.40;100.00;101415.06;6272556;22;20000;-83
2022/11/05 01:27:14;;;;;;;10.95;9.60;;;;;;;5.35;100.00;101415.16;6273135;22;20004;-84
2022/11/05 01:29:40;;;;;;;13.68;9.55;;;;;;;5.27;100.00;101414.44;6273178;22;20000;-85
2022/11/05 01:32:05;;;;;;;14.00;9.77;;;;;;;5.26;100.00;101423.22;6268601;22;20003;-83
2022/11/05 01:34:31;;;;;;;13.68;9.93;;;;;;;5.25;100.00;101429.41;6272485;22;20014;-83
2022/11/05 01:36:56;;;;;;;12.32;10.57;;;;;;;5.27;100.00;101426.72;6271229;22;20007;-83
2022/11/05 01:39:21;;;;;;;14.80;10.75;;;;;;;5.28;100.00;101432.00;6271346;22;20027;-84
2022/11/05 01:41:47;;;;;;;14.18;11.02;;;;;;;5.30;100.00;101424.91;6270678;22;20013;-83
2022/11/05 01:45:06;;;;;;;15.07;10.82;;;;;;;5.27;100.00;101432.91;6272272;22;20011;-83
2022/11/05 01:47:45;;;;;;;13.38;10.25;;;;;;;5.30;100.00;101434.59;6207330;23;20092;-83
2022/11/05 01:50:18;;;;;;;15.50;10.88;;;;;;;5.31;100.00;101438.97;6206304;23;20024;-83
2022/11/05 01:52:46;;;;;;;13.55;10.30;;;;;;;5.28;100.00;101434.63;6182101;23;20000;-83
2022/11/05 01:55:12;;;;;;;11.95;9.85;;;;;;;5.29;100.00;101441.66;6208482;23;20074;-82
2022/11/05 01:57:37;;;;;;;13.82;9.95;;;;;;;5.27;100.00;101425.00;6208808;23;20008;-83
2022/11/05 02:00:03;;;;;;;11.57;10.15;;;;;;;5.24;100.00;101439.09;6207551;23;20009;-83
2022/11/05 02:02:29;;;;;;;14.02;10.48;;;;;;;5.20;100.00;101436.56;6205971;23;20021;-83
2022/11/05 02:05:01;;;;;;;12.07;9.73;;;;;;;5.12;100.00;101430.56;6206895;23;20268;-84
2022/11/05 02:07:28;;;;;;;10.27;9.20;;;;;;;5.02;100.00;101419.31;6205918;23;20086;-83
2022/11/05 02:10:03;;;;;;;15.32;10.43;;;;;;;5.05;100.00;101427.16;6205829;23;20028;-83
2022/11/05 02:12:30;;;;;;;12.20;10.48;;;;;;;5.00;100.00;101419.31;6206903;23;20012;-83
2022/11/05 02:14:56;;;;;;;13.68;10.20;;;;;;;4.96;100.00;101424.69;6206841;23;20801;-83
2022/11/05 02:17:41;;;;;;;13.98;9.82;;;;;;;4.92;100.00;101423.00;6206527;23;20016;-83
2022/11/05 02:20:21;;;;;;;13.10;10.15;;;;;;;4.86;100.00;101423.13;6205904;23;20343;-83
2022/11/05 02:23:19;;;;;;;12.77;10.45;;;;;;;4.78;100.00;101423.25;6270881;22;20031;-84
2022/11/05 02:25:59;;;;;;;12.70;10.27;;;;;;;4.74;100.00;101429.47;6235605;22;20401;-83
2022/11/05 02:28:55;;;;;;;14.20;11.77;;;;;;;4.70;100.00;101425.16;6269686;22;20418;-83
2022/11/05 02:31:29;;;;;;;14.48;11.63;;;;;;;4.71;100.00;101425.13;6271049;22;20466;-83
2022/11/05 02:34:39;;;;;;;16.08;12.60;;;;;;;4.65;100.00;101427.88;6270212;22;20008;-83
2022/11/05 02:37:40;;;;;;;14.10;12.65;;;;;;;4.61;100.00;101418.28;6205770;23;20011;-83
2022/11/05 02:40:18;;;;;;;16.63;13.50;;;;;;;4.62;100.00;101416.50;6198304;23;20008;-84
2022/11/05 02:43:13;;;;;;;16.25;14.55;;;;;;;4.58;100.00;101415.69;6209510;23;20005;-83
2022/11/05 02:45:53;;;;;;;19.58;14.65;;;;;;;4.52;100.00;101407.91;6210049;23;20482;-83
2022/11/05 02:48:28;;;;;;;21.52;15.70;;;;;;;4.50;100.00;101414.94;6209159;23;20182;-84
2022/11/05 02:51:22;;;;;;;18.67;16.08;;;;;;;4.48;100.00;101414.09;6207847;23;20058;-83
2022/11/05 02:54:04;;;;;;;19.90;15.57;;;;;;;4.45;100.00;101417.66;6209407;23;20036;-84
2022/11/05 02:56:35;;;;;;;23.60;15.73;;;;;;;4.44;100.00;101413.28;6209710;23;20330;-83
2022/11/05 02:59:00;;;;;;;22.38;16.58;;;;;;;4.42;100.00;101412.44;6208893;23;20027;-83
2022/11/05 03:01:25;;;;;;;20.75;17.48;;;;;;;4.40;100.00;101416.88;6181262;23;20127;-83
2022/11/05 03:03:56;;;;;;;20.55;17.17;;;;;;;4.37;100.00;101411.63;6208888;23;20016;-83
2022/11/05 03:06:58;;;;;;;24.13;18.33;;;;;;;4.35;100.00;101418.72;6208282;23;20016;-83
2022/11/05 03:09:26;;;;;;;24.75;19.30;;;;;;;4.38;100.00;101418.66;6206759;23;20534;-82
2022/11/05 03:12:03;;;;;;;24.63;20.27;;;;;;;4.37;100.00;101416.03;6260667;22;20359;-83
2022/11/05 03:14:44;;;;;;;23.75;21.05;;;;;;;4.33;100.00;101409.94;6270394;22;20108;-83
2022/11/05 03:17:30;;;;;;;24.42;20.67;;;;;;;4.30;100.00;101412.63;6272330;22;20088;-83
2022/11/05 03:20:19;;;;;;;32.55;21.17;;;;;;;4.27;100.00;101410.06;6272358;22;20443;-83
2022/11/05 03:23:04;;;;;;;26.35;20.60;;;;;;;4.22;100.00;101412.78;6271403;22;20007;-83
2022/11/05 03:25:31;;;;;;;23.25;20.45;;;;;;;4.20;100.00;101413.69;6271998;22;20007;-83
2022/11/05 03:28:01;;;;;;;28.77;22.20;;;;;;;4.19;100.00;101411.94;6270601;22;20102;-83
2022/11/05 03:30:27;;;;;;;28.10;21.50;;;;;;;4.20;100.00;101418.94;6268939;22;20075;-83
2022/11/05 03:32:58;;;;;;;24.67;20.98;;;;;;;4.16;100.00;101410.22;6271392;22;20073;-83
2022/11/05 03:35:30;;;;;;;26.40;22.52;;;;;;;4.17;100.00;101419.84;6272127;22;20014;-83
2022/11/05 03:38:01;;;;;;;27.73;22.75;;;;;;;4.11;100.00;101416.47;6271476;22;20338;-83
2022/11/05 03:40:31;;;;;;;26.42;22.52;;;;;;;4.12;100.00;101426.97;6269937;22;20003;-83
2022/11/05 03:42:58;;;;;;;26.23;22.33;;;;;;;4.10;100.00;101427.91;6277110;22;20006;-82
2022/11/05 03:45:40;;;;;;;27.40;22.23;;;;;;;4.00;100.00;101420.09;6290575;22;20056;-83
2022/11/05 03:48:09;;;;;;;26.63;22.00;;;;;;;4.05;100.00;101429.69;6286986;22;20410;-83
2022/11/05 03:50:41;;;;;;;24.90;22.30;;;;;;;4.02;100.00;101421.88;6287528;22;20008;-84
2022/11/05 03:53:17;;;;;;;28.63;23.83;;;;;;;4.02;100.00;101419.22;6269739;22;20004;-83
2022/11/05 03:56:04;;;;;;;26.88;22.75;;;;;;;4.02;100.00;101419.22;6271225;22;20085;-84
2022/11/05 03:58:30;;;;;;;31.02;23.50;;;;;;;3.99;100.00;101418.38;6269141;22;20008;-84
2022/11/05 04:00:59;;;;;;;27.67;23.73;;;;;;;3.98;100.00;101427.16;6268405;22;20496;-84
2022/11/05 04:03:24;;;;;;;31.65;24.77;;;;;;;3.96;100.00;101417.53;6269048;22;20026;-84
2022/11/05 04:14:02;;;;;;;31.15;25.10;;;;;;;3.86;100.00;101422.06;6266498;22;20022;-83
2022/11/05 04:19:11;;;;;;;;;;;;;;;3.84;100.00;101442.28;6267721;22;20050;-82
2022/11/05 04:24:20;;;;;;;27.65;24.65;;;;;;;3.79;100.00;101446.75;6270314;22;20287;-83
2022/11/05 04:26:46;;;;;;;27.48;24.42;;;;;;;3.78;100.00;101439.75;6273264;22;19999;-83
2022/11/05 04:31:55;;;;;;;32.58;25.70;;;;;;;3.72;100.00;101445.06;6271299;22;20226;-83
2022/11/05 04:34:21;;;;;;;32.33;25.95;;;;;;;3.71;100.00;101440.69;6272201;22;20028;-82
2022/11/05 04:36:48;;;;;;;33.55;26.42;;;;;;;3.68;100.00;101438.13;6271915;22;20339;-83
2022/11/05 04:39:15;;;;;;;33.90;25.63;;;;;;;3.69;100.00;101443.38;6271160;22;20015;-82
2022/11/05 04:41:41;;;;;;;29.10;25.45;;;;;;;3.70;100.00;101458.25;6272729;22;20004;-84
2022/11/05 04:44:06;;;;;;;29.40;26.10;;;;;;;3.71;100.00;101456.50;6272530;22;20011;-83
2022/11/05 04:46:31;;;;;;;32.50;27.10;;;;;;;3.71;100.00;101448.59;6273253;22;20418;-83
2022/11/05 04:48:56;;;;;;;29.88;25.90;;;;;;;3.69;100.00;101455.66;6271663;22;20111;-83
2022/11/05 04:51:22;;;;;;;34.65;27.05;;;;;;;3.71;100.00;101456.50;6271922;22;20054;-83
2022/11/05 04:53:47;;;;;;;31.80;26.42;;;;;;;3.66;100.00;101456.56;6272697;22;20007;-83
2022/11/05 04:56:21;;;;;;;34.15;26.05;;;;;;;3.65;100.00;101459.22;6270674;22;20000;-84
2022/11/05 04:58:47;;;;;;;33.90;25.95;;;;;;;3.68;100.00;101456.56;6270823;22;20011;-84
2022/11/05 05:01:17;;;;;;;31.05;25.70;;;;;;;3.66;100.00;101467.09;6271237;22;20150;-84
2022/11/05 05:03:45;;;;;;;33.75;26.25;;;;;;;3.68;100.00;101467.09;6271182;22;20054;-84
2022/11/05 05:06:11;;;;;;;30.75;26.02;;;;;;;3.59;100.00;101454.88;6271624;22;20011;-84
2022/11/05 05:08:36;;;;;;;32.65;25.13;;;;;;;3.64;100.00;101471.53;6273163;22;20008;-83
2022/11/05 05:11:04;;;;;;;31.63;25.67;;;;;;;3.65;100.00;101464.50;6271190;22;20076;-83
2022/11/05 05:13:29;;;;;;;33.20;26.33;;;;;;;3.67;100.00;101470.59;6268408;22;20008;-81
2022/11/05 05:15:54;;;;;;;32.63;26.10;;;;;;;3.68;100.00;101472.34;6270330;22;20006;-83
2022/11/05 05:18:20;;;;;;;35.30;27.63;;;;;;;3.73;100.00;101474.03;6269516;22;20000;-84
2022/11/05 05:23:29;;;;;;;30.02;26.15;;;;;;;3.85;100.00;101477.41;6270855;22;20023;-84
2022/11/05 05:25:57;;;;;;;28.48;23.77;;;;;;;3.83;100.00;101477.41;6271235;22;20011;-83
2022/11/05 05:28:22;;;;;;;29.73;24.10;;;;;;;3.85;100.00;101480.03;6269174;22;20104;-83
2022/11/05 05:30:47;;;;;;;30.25;25.15;;;;;;;3.86;100.00;101473.88;6270276;22;20038;-84
2022/11/05 05:33:12;;;;;;;29.65;25.10;;;;;;;3.82;100.00;101472.16;6271780;22;20010;-83
2022/11/05 05:35:38;;;;;;;28.63;23.92;;;;;;;3.85;100.00;101486.19;6270640;22;19995;-83
2022/11/05 05:38:03;;;;;;;27.83;23.42;;;;;;;3.81;100.00;101479.19;6271328;22;20481;-83
2022/11/05 05:40:28;;;;;;;30.30;23.80;;;;;;;3.80;100.00;101487.97;6271108;22;20016;-83
2022/11/05 05:42:54;;;;;;;36.88;25.40;;;;;;;3.78;100.00;101481.88;6270371;22;19999;-83
2022/11/05 05:45:19;;;;;;;34.78;25.05;;;;;;;3.71;100.00;101482.81;6271682;22;19999;-84
2022/11/05 05:47:45;;;;;;;26.02;22.58;;;;;;;3.64;100.00;101483.81;6271068;22;20003;-83
2022/11/05 05:50:10;;;;;;;27.95;23.45;;;;;;;3.62;100.00;101493.47;6269303;22;20120;-81
2022/11/05 05:52:35;;;;;;;30.33;23.85;;;;;;;3.61;100.00;101497.88;6268889;22;20061;-81
2022/11/05 05:55:00;;;;;;;29.10;22.95;;;;;;;3.59;100.00;101499.63;6271255;22;20007;-83
2022/11/05 05:57:26;;;;;;;28.38;24.45;;;;;;;3.55;100.00;101494.44;6270403;22;20082;-83
2022/11/05 05:59:51;;;;;;;31.55;24.25;;;;;;;3.59;100.00;101501.41;6270411;22;20470;-83
2022/11/05 06:02:16;;;;;;;34.28;25.27;;;;;;;3.54;100.00;101501.44;6273555;22;20048;-83
2022/11/05 06:04:41;;;;;;;29.10;24.42;;;;;;;3.58;100.00;101500.53;6273624;22;20063;-83
2022/11/05 06:07:07;;;;;;;30.83;23.77;;;;;;;3.60;100.00;101498.78;6272595;22;20315;-83
2022/11/05 06:09:32;;;;;;;28.25;23.98;;;;;;;3.57;100.00;101496.16;6269578;22;20501;-83
2022/11/05 06:11:57;;;;;;;29.08;23.30;;;;;;;3.54;100.00;101495.31;6272445;22;20008;-83
2022/11/05 06:14:23;;;;;;;28.75;22.67;;;;;;;3.50;100.00;101497.97;6272272;22;20011;-82
2022/11/05 06:16:48;;;;;;;28.40;23.58;;;;;;;3.52;100.00;101497.97;6272644;22;20038;-83
2022/11/05 06:19:13;;;;;;;27.38;23.23;;;;;;;3.55;100.00;101505.81;6288069;22;20040;-82
2022/11/05 06:21:39;;;;;;;29.42;23.63;;;;;;;3.49;100.00;101509.41;6292160;22;20007;-82
2022/11/05 06:24:04;;;;;;;27.58;23.73;;;;;;;3.48;100.00;101509.44;6291471;22;20003;-82
2022/11/05 06:26:30;;;;;;;32.72;24.38;;;;;;;3.44;100.00;101500.69;6285351;22;20004;-83
2022/11/05 06:28:55;;;;;;;28.80;23.23;;;;;;;3.42;100.00;101507.72;6283690;22;20025;-82
2022/11/05 06:31:21;;;;;;;29.40;23.42;;;;;;;3.44;100.00;101511.22;6288578;22;20003;-83
2022/11/05 06:33:46;;;;;;;29.30;23.75;;;;;;;3.44;100.00;101513.84;6281682;22;20018;-83
2022/11/05 06:36:15;;;;;;;33.95;24.33;;;;;;;3.44;100.00;101516.50;6273734;22;20029;-84
2022/11/05 06:38:40;;;;;;;31.95;23.85;;;;;;;3.40;100.00;101512.13;6274239;22;20321;-84
2022/11/05 06:41:05;;;;;;;26.65;23.17;;;;;;;3.41;100.00;101516.50;6272305;22;20014;-83
2022/11/05 06:43:31;;;;;;;34.03;23.60;;;;;;;3.44;100.00;101520.88;6270712;22;20444;-84
2022/11/05 06:46:00;;;;;;;28.58;24.23;;;;;;;3.42;100.00;101515.63;6272050;22;20003;-82
2022/11/05 06:48:25;;;;;;;26.77;23.42;;;;;;;3.41;100.00;101515.63;6273876;22;20456;-84
2022/11/05 06:50:50;;;;;;;28.92;23.25;;;;;;;3.40;100.00;101517.41;6271800;22;20000;-85
2022/11/05 06:53:16;;;;;;;26.90;23.30;;;;;;;3.43;100.00;101525.28;6273109;22;20235;-83
2022/11/05 06:55:43;;;;;;;29.58;23.33;;;;;;;3.40;100.00;101524.44;6273352;22;20456;-82
2022/11/05 06:58:09;;;;;;;32.28;23.33;;;;;;;3.36;100.00;101517.47;6272584;22;20003;-83
2022/11/05 07:00:34;;;;;;;31.20;23.63;;;;;;;3.41;100.00;101513.00;6272602;22;20011;-83
2022/11/05 07:03:05;;;;;;;29.77;22.85;;;;;;;3.43;100.00;101529.66;6273674;22;20063;-82
2022/11/05 07:05:31;;;;;;;29.45;23.67;;;;;;;3.45;100.00;101530.50;6273743;22;20228;-82
2022/11/05 07:07:56;;;;;;;26.45;22.63;;;;;;;3.43;100.00;101527.03;6274102;22;20000;-83
2022/11/05 07:10:22;;;;;;;33.10;23.52;;;;;;;3.45;100.00;101526.13;6272250;22;19995;-82
2022/11/05 07:12:47;;;;;;;29.85;23.40;;;;;;;3.48;100.00;101531.34;6272560;22;20426;-82
2022/11/05 07:15:12;;;;;;;32.97;24.40;;;;;;;3.47;100.00;101536.66;6271459;22;20114;-84
2022/11/05 07:17:38;;;;;;;27.25;22.77;;;;;;;3.47;100.00;101528.75;6272692;22;20552;-84
2022/11/05 07:20:06;;;;;;;27.05;22.80;;;;;;;3.56;100.00;101540.94;6270963;22;20004;-83
2022/11/05 07:22:32;;;;;;;29.67;22.15;;;;;;;3.54;100.00;101543.56;6273449;22;20326;-82
2022/11/05 07:24:57;;;;;;;26.45;22.38;;;;;;;3.57;100.00;101545.31;6271836;22;19999;-84
2022/11/05 07:27:22;;;;;;;29.02;22.88;;;;;;;3.61;100.00;101544.38;6270147;22;20008;-84
2022/11/05 07:29:48;;;;;;;30.95;23.05;;;;;;;3.61;100.00;101547.88;6271013;22;20043;-82
2022/11/05 07:32:13;;;;;;;27.20;22.60;;;;;;;3.59;100.00;101544.38;6270894;22;20004;-82
2022/11/05 07:34:39;;;;;;;28.83;22.80;;;;;;;3.69;100.00;101553.06;6271701;22;20007;-83
2022/11/05 07:37:04;;;;;;;29.67;22.02;;;;;;;3.69;100.00;101548.69;6271273;22;20087;-83
2022/11/05 07:39:29;;;;;;;29.10;22.20;;;;;;;3.71;100.00;101560.03;6268207;22;20740;-83
2022/11/05 07:41:56;;;;;;;27.88;22.70;;;;;;;3.79;100.00;101559.97;6270401;22;20374;-83
2022/11/05 07:44:21;;;;;;;30.60;21.75;;;;;;;3.84;100.00;101565.19;6272950;22;20245;-83
2022/11/05 07:46:47;;;;;;;26.58;21.48;;;;;;;3.81;100.00;101558.19;6269735;22;20110;-84
2022/11/05 07:49:12;;;;;;;26.60;21.05;;;;;;;3.89;100.00;101569.53;6269462;22;20007;-84
2022/11/05 07:51:37;;;;;;;28.08;20.85;;;;;;;3.93;100.00;101568.59;6270477;22;20086;-84
2022/11/05 07:54:03;;;;;;;28.58;22.38;;;;;;;3.95;100.00;101564.16;6268990;22;20016;-84
2022/11/05 07:56:28;;;;;;;27.35;20.65;;;;;;;4.00;100.00;101570.25;6267746;22;20003;-83
2022/11/05 07:58:53;;;;;;;26.70;20.83;;;;;;;3.98;100.00;101564.13;6272060;22;20106;-83
2022/11/05 08:01:18;;;;;;;28.52;20.05;;;;;;;4.08;100.00;101562.25;6272478;22;20003;-83
2022/11/05 08:03:44;;;;;;;26.50;20.55;;;;;;;4.09;100.00;101571.88;6272066;22;20162;-82
2022/11/05 08:06:09;;;;;;;24.48;19.70;;;;;;;4.09;100.00;101556.09;6269935;22;20007;-82
2022/11/05 08:08:34;;;;;;;26.55;21.40;;;;;;;4.18;100.00;101560.34;6270031;22;20023;-82
2022/11/05 08:11:08;;;;;;;26.48;19.60;;;;;;;4.23;100.00;101564.69;6270691;22;20384;-83
2022/11/05 08:13:34;;;;;;;27.85;22.40;;;;;;;4.27;100.00;101564.66;6271626;22;20011;-83
2022/11/05 08:16:00;;;;;;;24.92;19.73;;;;;;;4.31;100.00;101561.09;6266574;22;20031;-83
2022/11/05 08:18:30;;;;;;;26.77;20.35;;;;;;;4.37;100.00;101564.50;6270363;22;20385;-83
2022/11/05 08:20:58;;;;;;;26.70;19.10;;;;;;;4.42;100.00;101564.44;6268088;22;20017;-83
2022/11/05 08:23:23;;;;;;;22.73;19.88;;;;;;;4.47;100.00;101566.13;6270025;22;20489;-82
2022/11/05 08:25:49;;;;;;;26.90;20.05;;;;;;;4.50;100.00;101559.94;6268957;22;20023;-81
2022/11/05 08:28:14;;;;;;;24.05;18.98;;;;;;;4.57;100.00;101556.31;6269122;22;20150;-84
2022/11/05 08:30:39;;;;;;;21.63;18.17;;;;;;;4.62;100.00;101565.03;6270272;22;20003;-86
2022/11/05 08:33:08;;;;;;;23.67;18.38;;;;;;;4.70;100.00;101559.66;6271121;22;20038;-86
2022/11/05 08:35:35;;;;;;;25.90;18.63;;;;;;;4.75;100.00;101563.06;6272648;22;20003;-86
2022/11/05 08:38:03;;;;;;;21.48;17.15;;;;;;;4.82;100.00;101558.59;6277238;22;19999;-86
2022/11/05 08:40:30;;;;;;;21.50;17.83;;;;;;;4.84;100.00;101560.28;6273240;22;20018;-86
2022/11/05 08:42:57;;;;;;;19.55;16.58;;;;;;;4.92;100.00;101568.09;6272587;22;20078;-87
2022/11/05 08:45:23;;;;;;;22.35;17.50;;;;;;;5.00;100.00;101569.69;6271708;22;20038;-87
2022/11/05 08:47:49;;;;;;;20.75;16.88;;;;;;;5.07;100.00;101570.47;6270955;22;20007;-87
2022/11/05 08:50:14;;;;;;;23.83;17.05;;;;;;;5.08;100.00;101555.53;6276386;22;20004;-85
2022/11/05 08:52:40;;;;;;;21.23;16.38;;;;;;;5.17;100.00;101556.22;6297002;22;20006;-85
2022/11/05 08:55:05;;;;;;;23.45;17.52;;;;;;;5.22;100.00;101562.31;6297600;22;19987;-86
2022/11/05 08:57:31;;;;;;;20.38;16.73;;;;;;;5.26;100.00;101557.84;6293649;22;20354;-85
2022/11/05 08:59:56;;;;;;;21.80;16.95;;;;;;;5.36;100.00;101577.03;6273735;22;19999;-85
2022/11/05 09:02:21;;;;;;;19.27;15.23;;;;;;;5.39;100.00;101572.59;6275439;22;20008;-86
2022/11/05 09:04:46;;;;;;;20.38;16.20;;;;;;;5.46;100.00;101575.97;6275952;22;20501;-86
2022/11/05 09:07:12;;;;;;;18.92;15.70;;;;;;;5.52;100.00;101570.59;6274668;22;20010;-86
2022/11/05 09:09:37;;;;;;;25.77;17.08;;;;;;;5.59;100.00;101566.03;6274329;22;20050;-87
2022/11/05 09:12:02;;;;;;;23.35;16.23;;;;;;;5.62;100.00;101568.63;6274900;22;20380;-85
2022/11/05 09:14:29;;;;;;;21.85;16.63;;;;;;;5.67;100.00;101574.69;6275973;22;20011;-85
2022/11/05 09:16:54;;;;;;;22.38;15.38;;;;;;;5.71;100.00;101568.47;6274042;22;20004;-86
2022/11/05 09:19:19;;;;;;;17.92;15.95;;;;;;;5.77;100.00;101581.56;6270870;22;20054;-84
2022/11/05 09:21:44;;;;;;;23.42;17.27;;;;;;;5.82;100.00;101570.91;6271721;22;20091;-85
2022/11/05 09:24:10;;;;;;;18.58;16.55;;;;;;;5.89;100.00;101569.88;6272669;22;20330;-85
2022/11/05 09:26:35;;;;;;;22.50;17.60;;;;;;;5.97;100.00;101568.84;6271564;22;20074;-86
2022/11/05 09:29:00;;;;;;;22.08;17.10;;;;;;;6.11;100.00;101575.63;6271450;22;20003;-85
2022/11/05 09:31:26;;;;;;;22.42;17.05;;;;;;;6.24;100.00;101577.13;6269143;22;20007;-87
2022/11/05 09:33:51;;;;;;;18.17;15.30;;;;;;;6.28;100.00;101581.44;6272494;22;20137;-85
2022/11/05 09:36:16;;;;;;;19.55;15.75;;;;;;;6.30;100.00;101571.69;6272395;22;20008;-89
2022/11/05 09:38:41;;;;;;;22.52;15.73;;;;;;;6.29;100.00;101559.38;6270755;22;20008;-85
2022/11/05 09:41:16;;;;;;;19.80;15.98;;;;;;;6.41;100.00;101569.69;6272754;22;20050;-90
2022/11/05 09:43:49;;;;;;;18.13;14.80;;;;;;;6.53;100.00;101578.25;6270874;22;20019;-84
2022/11/05 09:46:27;;;;;;;21.63;15.73;;;;;;;6.62;100.00;101589.50;6270045;22;20003;-84
2022/11/05 09:49:02;;;;;;;18.50;15.45;;;;;;;6.65;100.00;101581.50;6268493;22;20003;-84
2022/11/05 09:51:27;;;;;;;16.75;14.82;;;;;;;6.70;100.00;101576.97;6272721;22;20075;-84
2022/11/05 09:53:53;;;;;;;18.70;14.35;;;;;;;6.81;100.00;101591.72;6272115;22;20042;-84
2022/11/05 09:56:20;;;;;;;19.40;14.40;;;;;;;6.85;100.00;101596.88;6274138;22;20500;-84
2022/11/05 09:59:16;;;;;;;17.73;13.95;;;;;;;6.90;100.00;101592.38;6272327;22;20004;-84
2022/11/05 10:01:42;;;;;;;19.08;15.23;;;;;;;7.11;100.00;101592.78;6273694;22;20003;-85
2022/11/05 10:04:32;;;;;;;18.35;13.82;;;;;;;7.40;100.00;101600.00;6268913;22;20013;-85
2022/11/05 10:07:00;;;;;;;17.40;12.63;;;;;;;7.73;100.00;101598.22;6270953;22;20019;-85
2022/11/05 10:09:38;;;;;;;16.98;12.80;;;;;;;8.08;100.00;101607.84;6268119;22;20027;-84
2022/11/05 10:12:10;;;;;;;16.63;12.55;;;;;;;8.29;100.00;101597.53;6271912;22;20109;-84
2022/11/05 10:14:41;;;;;;;15.52;11.85;;;;;;;8.47;99.41;101600.53;6269949;22;20015;-84
2022/11/05 10:17:27;;;;;;;14.00;11.45;;;;;;;8.69;99.02;101611.41;6269741;22;20030;-84
2022/11/05 10:19:59;;;;;;;15.63;11.25;;;;;;;8.81;96.12;101611.91;6269186;22;20312;-84
2022/11/05 10:22:25;;;;;;;14.10;10.05;;;;;;;8.82;94.42;101609.22;6271915;22;20494;-85
2022/11/05 10:24:52;;;;;;;13.35;10.18;;;;;;;8.87;95.09;101617.91;6270098;22;20015;-83
2022/11/05 10:27:22;;;;;;;12.20;10.02;;;;;;;8.95;95.40;101618.53;6271480;22;20010;-84
2022/11/05 10:29:49;;;;;;;11.02;9.82;;;;;;;9.07;93.63;101617.28;6269136;22;20038;-83
2022/11/05 10:32:36;;;;;;;13.48;10.85;;;;;;;9.36;95.31;101620.75;6269848;22;20076;-84
2022/11/05 10:35:06;;;;;;;14.10;11.30;;;;;;;9.41;93.58;101613.50;6270486;22;20004;-85
2022/11/05 10:37:32;;;;;;;14.05;10.73;;;;;;;9.47;92.26;101621.25;6271410;22;20008;-83
2022/11/05 10:39:58;;;;;;;14.07;9.98;;;;;;;9.38;92.20;101617.13;6270560;22;20053;-84
2022/11/05 10:42:59;;;;;;;14.25;10.13;;;;;;;9.47;94.24;101622.13;6270469;22;20004;-84
2022/11/05 10:45:34;;;;;;;14.57;9.63;;;;;;;9.37;90.54;101615.41;6260144;22;20008;-83
2022/11/05 10:48:08;;;;;;;12.00;9.82;;;;;;;9.37;92.70;101626.03;6268623;22;20575;-84
2022/11/05 10:50:33;;;;;;;16.98;10.02;;;;;;;9.37;92.60;101615.41;6270890;22;20004;-83
2022/11/05 10:53:16;;;;;;;13.63;9.20;;;;;;;9.37;92.90;101618.06;6271098;22;20022;-83
2022/11/05 10:55:48;;;;;;;15.00;9.20;;;;;;;9.32;90.68;101620.00;6271032;22;20007;-83
2022/11/05 10:58:16;;;;;;;11.95;9.25;;;;;;;9.20;90.10;101615.09;6271456;22;20079;-83
2022/11/05 11:01:04;;;;;;;13.23;9.63;;;;;;;9.15;92.25;101617.88;6271551;22;20034;-83
2022/11/05 11:03:40;;;;;;;13.18;9.93;;;;;;;9.14;92.44;101612.63;6271958;22;20015;-83
2022/11/05 11:06:27;;;;;;;11.52;9.20;;;;;;;9.28;92.73;101610.41;6272311;22;20014;-83
2022/11/05 11:08:55;;;;;;;11.98;9.32;;;;;;;9.32;91.76;101612.03;6272248;22;20018;-83
2022/11/05 11:11:41;;;;;;;14.85;10.13;;;;;;;9.43;91.95;101619.63;6271674;22;20014;-84
2022/11/05 11:14:12;;;;;;;12.88;10.38;;;;;;;9.47;90.29;101623.91;6272243;22;20396;-84
2022/11/05 11:16:43;;;;;;;15.07;11.13;;;;;;;9.54;90.70;101613.97;6273396;22;20034;-84
2022/11/05 11:19:25;;;;;;;14.73;10.93;;;;;;;9.56;90.83;101607.66;6273197;22;20010;-84
2022/11/05 11:22:02;;;;;;;12.88;9.80;;;;;;;9.71;90.41;101614.25;6273815;22;20378;-83
2022/11/05 11:24:29;;;;;;;14.27;10.35;;;;;;;9.84;90.27;101607.56;6274263;22;20015;-85
2022/11/05 11:27:01;;;;;;;17.40;11.18;;;;;;;10.02;89.82;101599.84;6279737;22;20011;-85
2022/11/05 11:29:28;;;;;;;14.77;10.23;;;;;;;10.27;86.08;101599.84;6280956;22;20015;-84
2022/11/05 11:31:56;;;;;;;14.32;10.15;;;;;;;10.30;85.83;101595.28;6282099;22;20054;-84
2022/11/05 11:34:29;;;;;;;15.93;11.02;;;;;;;10.31;85.58;101597.00;6277190;22;20500;-85
2022/11/05 11:37:03;;;;;;;13.82;10.68;;;;;;;10.42;86.34;101597.47;6272633;22;20003;-84
2022/11/05 11:39:30;;;;;;;15.90;10.23;;;;;;;10.60;84.81;101587.03;6272571;22;20031;-84
2022/11/05 11:41:59;;;;;;;12.48;10.32;;;;;;;10.87;84.24;101598.41;6273603;22;20003;-84
2022/11/05 11:44:29;;;;;;;13.40;10.10;;;;;;;10.95;84.28;101589.19;6274002;22;20003;-84
2022/11/05 11:47:09;;;;;;;15.93;10.88;;;;;;;11.17;83.14;101586.50;6272238;22;20034;-81
2022/11/05 11:49:40;;;;;;;14.98;9.55;;;;;;;11.07;81.47;101589.59;6272303;22;19988;-82
2022/11/05 11:52:36;;;;;;;10.45;8.77;;;;;;;10.97;82.38;101592.63;6272189;22;20000;-83
2022/11/05 11:55:10;;;;;;;11.20;8.70;;;;;;;10.89;81.49;101591.22;6271403;22;20031;-84
2022/11/05 11:57:48;;;;;;;14.00;9.00;;;;;;;10.78;82.74;101596.94;6271125;22;20015;-85
2022/11/05 12:00:15;;;;;;;13.50;9.00;;;;;;;10.78;82.88;101596.09;6271500;22;20007;-84
2022/11/05 12:02:49;;;;;;;11.63;8.32;;;;;;;10.79;81.92;101597.84;6272825;22;20019;-84
2022/11/05 12:05:14;;;;;;;10.10;7.82;;;;;;;10.63;82.01;101595.78;6272160;22;20007;-84